Terminal Aerodrome Forecast
Issued by NWS Bismarck, ND

Home | Current Version | Previous Version | Graphics & Text | Print | Product List | Glossary On
Versions: 1 2 3 4 5 6 7 8 9 10 11 12 13
480
FTUS43 KBIS 171720
TAFBIS
TAF
KBIS 171720Z 1718/1818 15004KT P6SM FEW200
     FM172300 18008KT P6SM SCT250
     FM180400 VRB03KT P6SM VCTS SCT090CB SCT250
     FM180900 30005KT P6SM SCT120 SCT250
     FM181500 32010KT P6SM FEW140=

USA.gov is the U.S. government's official web portal to all federal, state and local government web resources and services.